sensor_id;sensor_type;location;lat;lon;timestamp;temperature;humidity
64654;DHT22;51065;48.884;12.598;2024-02-16T00:00:39;3.00;99.90
64654;DHT22;51065;48.884;12.598;2024-02-16T00:03:05;3.10;99.90
64654;DHT22;51065;48.884;12.598;2024-02-16T00:05:31;3.10;99.90
64654;DHT22;51065;48.884;12.598;2024-02-16T00:07:56;3.00;99.90
64654;DHT22;51065;48.884;12.598;2024-02-16T00:10:22;3.00;99.90
64654;DHT22;51065;48.884;12.598;2024-02-16T00:12:51;2.90;99.90
64654;DHT22;51065;48.884;12.598;2024-02-16T00:15:16;3.00;99.90
64654;DHT22;51065;48.884;12.598;2024-02-16T00:17:42;2.90;99.90
64654;DHT22;51065;48.884;12.598;2024-02-16T00:20:07;2.90;99.90
64654;DHT22;51065;48.884;12.598;2024-02-16T00:22:33;3.00;99.90
64654;DHT22;51065;48.884;12.598;2024-02-16T00:25:03;2.90;99.90
64654;DHT22;51065;48.884;12.598;2024-02-16T00:27:29;2.90;99.90
64654;DHT22;51065;48.884;12.598;2024-02-16T00:29:55;2.90;99.90
64654;DHT22;51065;48.884;12.598;2024-02-16T00:32:20;2.90;99.90
64654;DHT22;51065;48.884;12.598;2024-02-16T00:34:52;3.00;99.90
64654;DHT22;51065;48.884;12.598;2024-02-16T00:37:19;3.00;99.90
64654;DHT22;51065;48.884;12.598;2024-02-16T00:39:45;2.90;99.90
64654;DHT22;51065;48.884;12.598;2024-02-16T00:42:10;2.80;99.90
64654;DHT22;51065;48.884;12.598;2024-02-16T00:44:39;2.80;99.90
64654;DHT22;51065;48.884;12.598;2024-02-16T00:47:05;2.70;99.90
64654;DHT22;51065;48.884;12.598;2024-02-16T00:49:32;2.70;99.90
64654;DHT22;51065;48.884;12.598;2024-02-16T00:51:57;2.70;99.90
64654;DHT22;51065;48.884;12.598;2024-02-16T00:54:25;2.70;99.90
64654;DHT22;51065;48.884;12.598;2024-02-16T00:56:51;2.60;99.90
64654;DHT22;51065;48.884;12.598;2024-02-16T00:59:17;2.70;99.90
64654;DHT22;51065;48.884;12.598;2024-02-16T01:01:46;2.70;99.90
64654;DHT22;51065;48.884;12.598;2024-02-16T01:04:12;2.70;99.90
64654;DHT22;51065;48.884;12.598;2024-02-16T01:06:40;2.70;99.90
64654;DHT22;51065;48.884;12.598;2024-02-16T01:09:09;2.80;99.90
64654;DHT22;51065;48.884;12.598;2024-02-16T01:11:34;2.90;99.90
64654;DHT22;51065;48.884;12.598;2024-02-16T01:14:06;2.90;99.90
64654;DHT22;51065;48.884;12.598;2024-02-16T01:16:32;2.90;99.90
64654;DHT22;51065;48.884;12.598;2024-02-16T01:19:01;2.90;99.90
64654;DHT22;51065;48.884;12.598;2024-02-16T01:21:27;2.90;99.90
64654;DHT22;51065;48.884;12.598;2024-02-16T01:23:55;2.90;99.90
64654;DHT22;51065;48.884;12.598;2024-02-16T01:26:24;2.70;99.90
64654;DHT22;51065;48.884;12.598;2024-02-16T01:28:50;2.70;99.90
64654;DHT22;51065;48.884;12.598;2024-02-16T01:31:15;2.60;99.90
64654;DHT22;51065;48.884;12.598;2024-02-16T01:33:41;2.50;99.90
64654;DHT22;51065;48.884;12.598;2024-02-16T01:36:07;2.40;99.90
64654;DHT22;51065;48.884;12.598;2024-02-16T01:38:32;2.30;99.90
64654;DHT22;51065;48.884;12.598;2024-02-16T01:40:58;2.20;99.90
64654;DHT22;51065;48.884;12.598;2024-02-16T01:43:24;2.20;99.90
64654;DHT22;51065;48.884;12.598;2024-02-16T01:45:49;2.40;99.90
64654;DHT22;51065;48.884;12.598;2024-02-16T01:48:15;2.60;99.90
64654;DHT22;51065;48.884;12.598;2024-02-16T01:50:45;2.70;99.90
64654;DHT22;51065;48.884;12.598;2024-02-16T01:53:15;2.70;99.90
64654;DHT22;51065;48.884;12.598;2024-02-16T01:55:44;2.70;99.90
64654;DHT22;51065;48.884;12.598;2024-02-16T01:58:11;2.70;99.90
64654;DHT22;51065;48.884;12.598;2024-02-16T02:00:37;2.60;99.90
64654;DHT22;51065;48.884;12.598;2024-02-16T02:03:05;2.70;99.90
64654;DHT22;51065;48.884;12.598;2024-02-16T02:05:42;2.80;99.90
64654;DHT22;51065;48.884;12.598;2024-02-16T02:08:10;2.90;99.90
64654;DHT22;51065;48.884;12.598;2024-02-16T02:10:36;2.90;99.90
64654;DHT22;51065;48.884;12.598;2024-02-16T02:13:02;2.80;99.90
64654;DHT22;51065;48.884;12.598;2024-02-16T02:15:28;2.80;99.90
64654;DHT22;51065;48.884;12.598;2024-02-16T02:17:53;2.70;99.90
64654;DHT22;51065;48.884;12.598;2024-02-16T02:20:19;2.70;99.90
64654;DHT22;51065;48.884;12.598;2024-02-16T02:22:45;2.60;99.90
64654;DHT22;51065;48.884;12.598;2024-02-16T02:25:10;2.50;99.90
64654;DHT22;51065;48.884;12.598;2024-02-16T02:27:37;2.50;99.90
64654;DHT22;51065;48.884;12.598;2024-02-16T02:30:04;2.50;99.90
64654;DHT22;51065;48.884;12.598;2024-02-16T02:32:30;2.40;99.90
64654;DHT22;51065;48.884;12.598;2024-02-16T02:34:56;2.40;99.90
64654;DHT22;51065;48.884;12.598;2024-02-16T02:37:21;2.40;99.90
64654;DHT22;51065;48.884;12.598;2024-02-16T02:39:47;2.40;99.90
64654;DHT22;51065;48.884;12.598;2024-02-16T02:42:13;2.80;99.90
64654;DHT22;51065;48.884;12.598;2024-02-16T02:44:38;2.90;99.90
64654;DHT22;51065;48.884;12.598;2024-02-16T02:47:04;2.80;99.90
64654;DHT22;51065;48.884;12.598;2024-02-16T02:49:30;2.70;99.90
64654;DHT22;51065;48.884;12.598;2024-02-16T02:51:56;2.60;99.90
64654;DHT22;51065;48.884;12.598;2024-02-16T02:54:21;2.60;99.90
64654;DHT22;51065;48.884;12.598;2024-02-16T02:56:47;2.60;99.90
64654;DHT22;51065;48.884;12.598;2024-02-16T02:59:12;2.60;99.90
64654;DHT22;51065;48.884;12.598;2024-02-16T03:01:38;2.60;99.90
64654;DHT22;51065;48.884;12.598;2024-02-16T03:04:04;2.70;99.90
64654;DHT22;51065;48.884;12.598;2024-02-16T03:06:29;2.80;99.90
64654;DHT22;51065;48.884;12.598;2024-02-16T03:08:55;2.80;99.90
64654;DHT22;51065;48.884;12.598;2024-02-16T03:11:20;2.70;99.90
64654;DHT22;51065;48.884;12.598;2024-02-16T03:13:46;2.70;99.90
64654;DHT22;51065;48.884;12.598;2024-02-16T03:16:11;2.70;99.90
64654;DHT22;51065;48.884;12.598;2024-02-16T03:18:37;2.60;99.90
64654;DHT22;51065;48.884;12.598;2024-02-16T03:21:03;2.50;99.90
64654;DHT22;51065;48.884;12.598;2024-02-16T03:23:29;2.50;99.90
64654;DHT22;51065;48.884;12.598;2024-02-16T03:25:54;2.60;99.90
64654;DHT22;51065;48.884;12.598;2024-02-16T03:28:20;2.60;99.90
64654;DHT22;51065;48.884;12.598;2024-02-16T03:30:46;2.50;99.90
64654;DHT22;51065;48.884;12.598;2024-02-16T03:33:12;2.40;99.90
64654;DHT22;51065;48.884;12.598;2024-02-16T03:35:38;2.30;99.90
64654;DHT22;51065;48.884;12.598;2024-02-16T03:38:04;2.40;99.90
64654;DHT22;51065;48.884;12.598;2024-02-16T03:40:30;2.40;99.90
64654;DHT22;51065;48.884;12.598;2024-02-16T03:42:56;2.40;99.90
64654;DHT22;51065;48.884;12.598;2024-02-16T03:45:21;2.40;99.90
64654;DHT22;51065;48.884;12.598;2024-02-16T03:47:47;2.50;99.90
64654;DHT22;51065;48.884;12.598;2024-02-16T03:50:14;2.50;99.90
64654;DHT22;51065;48.884;12.598;2024-02-16T03:52:40;2.60;99.90
64654;DHT22;51065;48.884;12.598;2024-02-16T03:55:06;2.70;99.90
64654;DHT22;51065;48.884;12.598;2024-02-16T03:57:35;2.70;99.90
64654;DHT22;51065;48.884;12.598;2024-02-16T04:00:05;2.70;99.90
64654;DHT22;51065;48.884;12.598;2024-02-16T04:02:31;2.60;99.90
64654;DHT22;51065;48.884;12.598;2024-02-16T04:04:57;2.60;99.90
64654;DHT22;51065;48.884;12.598;2024-02-16T04:07:22;2.60;99.90
64654;DHT22;51065;48.884;12.598;2024-02-16T04:09:48;2.60;99.90
64654;DHT22;51065;48.884;12.598;2024-02-16T04:12:13;2.60;99.90
64654;DHT22;51065;48.884;12.598;2024-02-16T04:14:39;2.70;99.90
64654;DHT22;51065;48.884;12.598;2024-02-16T04:17:07;2.90;99.90
64654;DHT22;51065;48.884;12.598;2024-02-16T04:19:32;2.90;99.90
64654;DHT22;51065;48.884;12.598;2024-02-16T04:21:58;2.90;99.90
64654;DHT22;51065;48.884;12.598;2024-02-16T04:24:24;2.90;99.90
64654;DHT22;51065;48.884;12.598;2024-02-16T04:26:49;2.90;99.90
64654;DHT22;51065;48.884;12.598;2024-02-16T04:29:15;2.90;99.90
64654;DHT22;51065;48.884;12.598;2024-02-16T04:31:42;2.80;99.90
64654;DHT22;51065;48.884;12.598;2024-02-16T04:34:08;2.80;99.90
64654;DHT22;51065;48.884;12.598;2024-02-16T04:36:34;2.80;99.90
64654;DHT22;51065;48.884;12.598;2024-02-16T04:39:05;3.00;99.90
64654;DHT22;51065;48.884;12.598;2024-02-16T04:41:31;3.10;99.90
64654;DHT22;51065;48.884;12.598;2024-02-16T04:43:56;3.20;99.90
64654;DHT22;51065;48.884;12.598;2024-02-16T04:46:22;3.30;99.90
64654;DHT22;51065;48.884;12.598;2024-02-16T04:48:48;3.30;99.90
64654;DHT22;51065;48.884;12.598;2024-02-16T04:51:13;3.30;99.90
64654;DHT22;51065;48.884;12.598;2024-02-16T04:53:39;3.30;99.90
64654;DHT22;51065;48.884;12.598;2024-02-16T04:56:05;3.40;99.90
64654;DHT22;51065;48.884;12.598;2024-02-16T04:58:31;3.40;99.90
64654;DHT22;51065;48.884;12.598;2024-02-16T05:00:59;3.30;99.90
64654;DHT22;51065;48.884;12.598;2024-02-16T05:03:25;3.30;99.90
64654;DHT22;51065;48.884;12.598;2024-02-16T05:05:51;3.40;99.90
64654;DHT22;51065;48.884;12.598;2024-02-16T05:08:17;3.40;99.90
64654;DHT22;51065;48.884;12.598;2024-02-16T05:10:43;3.40;99.90
64654;DHT22;51065;48.884;12.598;2024-02-16T05:13:09;3.50;99.90
64654;DHT22;51065;48.884;12.598;2024-02-16T05:15:36;3.50;99.90
64654;DHT22;51065;48.884;12.598;2024-02-16T05:18:05;3.50;99.90
64654;DHT22;51065;48.884;12.598;2024-02-16T05:20:30;3.50;99.90
64654;DHT22;51065;48.884;12.598;2024-02-16T05:22:56;3.50;99.90
64654;DHT22;51065;48.884;12.598;2024-02-16T05:25:22;3.40;99.90
64654;DHT22;51065;48.884;12.598;2024-02-16T05:27:48;3.40;99.90
64654;DHT22;51065;48.884;12.598;2024-02-16T05:30:14;3.40;99.90
64654;DHT22;51065;48.884;12.598;2024-02-16T05:32:41;3.50;99.90
64654;DHT22;51065;48.884;12.598;2024-02-16T05:35:08;3.50;99.90
64654;DHT22;51065;48.884;12.598;2024-02-16T05:37:40;3.50;99.90
64654;DHT22;51065;48.884;12.598;2024-02-16T05:40:09;3.50;99.90
64654;DHT22;51065;48.884;12.598;2024-02-16T05:42:48;3.50;99.90
64654;DHT22;51065;48.884;12.598;2024-02-16T05:45:14;3.50;99.90
64654;DHT22;51065;48.884;12.598;2024-02-16T05:47:44;3.50;99.90
64654;DHT22;51065;48.884;12.598;2024-02-16T05:50:11;3.50;99.90
64654;DHT22;51065;48.884;12.598;2024-02-16T05:52:38;3.40;99.90
64654;DHT22;51065;48.884;12.598;2024-02-16T05:55:04;3.50;99.90
64654;DHT22;51065;48.884;12.598;2024-02-16T05:57:30;3.50;99.90
64654;DHT22;51065;48.884;12.598;2024-02-16T05:59:58;3.50;99.90
64654;DHT22;51065;48.884;12.598;2024-02-16T06:02:24;3.50;99.90
64654;DHT22;51065;48.884;12.598;2024-02-16T06:04:56;3.60;99.90
64654;DHT22;51065;48.884;12.598;2024-02-16T06:07:21;3.60;99.90
64654;DHT22;51065;48.884;12.598;2024-02-16T06:09:47;3.60;99.90
64654;DHT22;51065;48.884;12.598;2024-02-16T06:12:13;3.60;99.90
64654;DHT22;51065;48.884;12.598;2024-02-16T06:14:38;3.60;99.90
64654;DHT22;51065;48.884;12.598;2024-02-16T06:17:04;3.70;99.90
64654;DHT22;51065;48.884;12.598;2024-02-16T06:19:30;3.70;99.90
64654;DHT22;51065;48.884;12.598;2024-02-16T06:21:56;3.80;99.90
64654;DHT22;51065;48.884;12.598;2024-02-16T06:24:22;3.80;99.90
64654;DHT22;51065;48.884;12.598;2024-02-16T06:26:49;3.90;99.90
64654;DHT22;51065;48.884;12.598;2024-02-16T06:29:15;4.00;99.90
64654;DHT22;51065;48.884;12.598;2024-02-16T06:31:41;4.00;99.90
64654;DHT22;51065;48.884;12.598;2024-02-16T06:34:06;4.00;99.90
64654;DHT22;51065;48.884;12.598;2024-02-16T06:36:33;4.00;99.90
64654;DHT22;51065;48.884;12.598;2024-02-16T06:38:59;4.00;99.90
64654;DHT22;51065;48.884;12.598;2024-02-16T06:41:25;4.00;99.90
64654;DHT22;51065;48.884;12.598;2024-02-16T06:43:50;4.10;99.90
64654;DHT22;51065;48.884;12.598;2024-02-16T06:46:16;4.10;99.90
64654;DHT22;51065;48.884;12.598;2024-02-16T06:48:41;4.20;99.90
64654;DHT22;51065;48.884;12.598;2024-02-16T06:51:07;4.40;99.90
64654;DHT22;51065;48.884;12.598;2024-02-16T06:53:33;4.50;99.90
64654;DHT22;51065;48.884;12.598;2024-02-16T06:55:59;4.50;99.90
64654;DHT22;51065;48.884;12.598;2024-02-16T06:58:24;4.60;99.90
64654;DHT22;51065;48.884;12.598;2024-02-16T07:00:50;4.60;99.90
64654;DHT22;51065;48.884;12.598;2024-02-16T07:03:16;4.70;99.90
64654;DHT22;51065;48.884;12.598;2024-02-16T07:05:41;4.80;99.90
64654;DHT22;51065;48.884;12.598;2024-02-16T07:08:07;4.90;99.90
64654;DHT22;51065;48.884;12.598;2024-02-16T07:10:33;5.00;99.90
64654;DHT22;51065;48.884;12.598;2024-02-16T07:13:00;5.10;99.90
64654;DHT22;51065;48.884;12.598;2024-02-16T07:15:25;5.20;99.90
64654;DHT22;51065;48.884;12.598;2024-02-16T07:17:53;5.30;99.90
64654;DHT22;51065;48.884;12.598;2024-02-16T07:20:18;5.40;99.90
64654;DHT22;51065;48.884;12.598;2024-02-16T07:22:44;5.60;99.90
64654;DHT22;51065;48.884;12.598;2024-02-16T07:25:12;5.90;99.90
64654;DHT22;51065;48.884;12.598;2024-02-16T07:27:38;6.60;99.90
64654;DHT22;51065;48.884;12.598;2024-02-16T07:30:04;7.10;99.90
64654;DHT22;51065;48.884;12.598;2024-02-16T07:32:30;6.70;99.90
64654;DHT22;51065;48.884;12.598;2024-02-16T07:34:56;6.50;99.90
64654;DHT22;51065;48.884;12.598;2024-02-16T07:37:21;6.30;99.90
64654;DHT22;51065;48.884;12.598;2024-02-16T07:39:47;6.30;99.90
64654;DHT22;51065;48.884;12.598;2024-02-16T07:42:12;6.50;99.90
64654;DHT22;51065;48.884;12.598;2024-02-16T07:44:39;6.40;99.90
64654;DHT22;51065;48.884;12.598;2024-02-16T07:47:05;6.70;99.90
64654;DHT22;51065;48.884;12.598;2024-02-16T07:49:30;6.80;99.90
64654;DHT22;51065;48.884;12.598;2024-02-16T07:51:56;6.80;99.90
64654;DHT22;51065;48.884;12.598;2024-02-16T07:54:23;6.60;99.90
64654;DHT22;51065;48.884;12.598;2024-02-16T07:56:48;6.50;99.90
64654;DHT22;51065;48.884;12.598;2024-02-16T07:59:14;6.50;99.90
64654;DHT22;51065;48.884;12.598;2024-02-16T08:01:40;6.60;99.90
64654;DHT22;51065;48.884;12.598;2024-02-16T08:04:06;6.70;99.90
64654;DHT22;51065;48.884;12.598;2024-02-16T08:06:31;6.70;99.90
64654;DHT22;51065;48.884;12.598;2024-02-16T08:08:57;6.70;99.90
64654;DHT22;51065;48.884;12.598;2024-02-16T08:11:23;6.80;99.90
64654;DHT22;51065;48.884;12.598;2024-02-16T08:13:48;6.80;99.90
64654;DHT22;51065;48.884;12.598;2024-02-16T08:16:14;6.80;99.90
64654;DHT22;51065;48.884;12.598;2024-02-16T08:18:39;6.90;99.90
64654;DHT22;51065;48.884;12.598;2024-02-16T08:21:05;7.10;99.90
64654;DHT22;51065;48.884;12.598;2024-02-16T08:23:31;7.10;99.90
64654;DHT22;51065;48.884;12.598;2024-02-16T08:25:56;7.00;99.90
64654;DHT22;51065;48.884;12.598;2024-02-16T08:28:23;7.10;99.90
64654;DHT22;51065;48.884;12.598;2024-02-16T08:30:49;7.20;99.90
64654;DHT22;51065;48.884;12.598;2024-02-16T08:33:15;7.50;99.90
64654;DHT22;51065;48.884;12.598;2024-02-16T08:35:41;7.60;99.90
64654;DHT22;51065;48.884;12.598;2024-02-16T08:38:06;7.80;99.90
64654;DHT22;51065;48.884;12.598;2024-02-16T08:40:37;7.90;99.90
64654;DHT22;51065;48.884;12.598;2024-02-16T08:43:04;8.10;99.90
64654;DHT22;51065;48.884;12.598;2024-02-16T08:45:30;8.10;99.90
64654;DHT22;51065;48.884;12.598;2024-02-16T08:47:56;7.90;99.90
64654;DHT22;51065;48.884;12.598;2024-02-16T08:50:23;7.90;99.90
64654;DHT22;51065;48.884;12.598;2024-02-16T08:52:49;8.00;99.90
64654;DHT22;51065;48.884;12.598;2024-02-16T08:55:15;8.20;99.90
64654;DHT22;51065;48.884;12.598;2024-02-16T08:57:41;8.30;99.90
64654;DHT22;51065;48.884;12.598;2024-02-16T09:00:07;8.50;99.90
64654;DHT22;51065;48.884;12.598;2024-02-16T09:02:33;8.70;1.00
64654;DHT22;51065;48.884;12.598;2024-02-16T09:04:59;8.60;99.90
64654;DHT22;51065;48.884;12.598;2024-02-16T09:07:24;8.30;1.00
64654;DHT22;51065;48.884;12.598;2024-02-16T09:09:51;8.40;1.00
64654;DHT22;51065;48.884;12.598;2024-02-16T09:12:17;8.60;1.00
64654;DHT22;51065;48.884;12.598;2024-02-16T09:14:42;8.80;99.90
64654;DHT22;51065;48.884;12.598;2024-02-16T09:17:08;8.60;99.90
64654;DHT22;51065;48.884;12.598;2024-02-16T09:19:33;8.60;99.90
64654;DHT22;51065;48.884;12.598;2024-02-16T09:21:59;8.70;99.90
64654;DHT22;51065;48.884;12.598;2024-02-16T09:24:28;8.80;99.90
64654;DHT22;51065;48.884;12.598;2024-02-16T09:26:55;8.90;1.00
64654;DHT22;51065;48.884;12.598;2024-02-16T09:29:21;8.80;1.00
64654;DHT22;51065;48.884;12.598;2024-02-16T09:31:49;8.90;1.00
64654;DHT22;51065;48.884;12.598;2024-02-16T09:34:14;9.20;1.00
64654;DHT22;51065;48.884;12.598;2024-02-16T09:36:40;9.40;1.00
64654;DHT22;51065;48.884;12.598;2024-02-16T09:39:06;9.90;99.90
64654;DHT22;51065;48.884;12.598;2024-02-16T09:41:35;10.50;99.90
64654;DHT22;51065;48.884;12.598;2024-02-16T09:44:03;10.70;16.70
64654;DHT22;51065;48.884;12.598;2024-02-16T09:46:30;11.40;99.90
64654;DHT22;51065;48.884;12.598;2024-02-16T09:49:03;11.10;99.90
64654;DHT22;51065;48.884;12.598;2024-02-16T09:51:29;11.30;99.90
64654;DHT22;51065;48.884;12.598;2024-02-16T09:53:55;11.50;13.50
64654;DHT22;51065;48.884;12.598;2024-02-16T09:56:21;11.30;99.90
64654;DHT22;51065;48.884;12.598;2024-02-16T09:58:47;11.60;92.70
64654;DHT22;51065;48.884;12.598;2024-02-16T10:01:20;12.10;1.00
64654;DHT22;51065;48.884;12.598;2024-02-16T10:03:46;12.50;99.90
64654;DHT22;51065;48.884;12.598;2024-02-16T10:06:12;13.00;1.00
64654;DHT22;51065;48.884;12.598;2024-02-16T10:08:55;13.40;99.90
64654;DHT22;51065;48.884;12.598;2024-02-16T10:11:24;13.30;1.00
64654;DHT22;51065;48.884;12.598;2024-02-16T10:14:03;12.70;99.90
64654;DHT22;51065;48.884;12.598;2024-02-16T10:16:30;12.40;99.90
64654;DHT22;51065;48.884;12.598;2024-02-16T10:19:03;12.70;1.00
64654;DHT22;51065;48.884;12.598;2024-02-16T10:21:29;13.20;1.00
64654;DHT22;51065;48.884;12.598;2024-02-16T10:23:59;12.80;1.00
64654;DHT22;51065;48.884;12.598;2024-02-16T10:26:26;12.60;70.70
64654;DHT22;51065;48.884;12.598;2024-02-16T10:28:54;12.30;99.90
64654;DHT22;51065;48.884;12.598;2024-02-16T10:31:22;12.80;99.90
64654;DHT22;51065;48.884;12.598;2024-02-16T10:34:00;13.10;1.00
64654;DHT22;51065;48.884;12.598;2024-02-16T10:36:32;12.90;99.00
64654;DHT22;51065;48.884;12.598;2024-02-16T10:38:58;13.30;1.00
64654;DHT22;51065;48.884;12.598;2024-02-16T10:41:28;12.70;1.00
64654;DHT22;51065;48.884;12.598;2024-02-16T10:43:54;12.30;92.00
64654;DHT22;51065;48.884;12.598;2024-02-16T10:46:20;12.30;99.90
64654;DHT22;51065;48.884;12.598;2024-02-16T10:48:46;12.20;99.90
64654;DHT22;51065;48.884;12.598;2024-02-16T10:51:13;11.90;1.00
64654;DHT22;51065;48.884;12.598;2024-02-16T10:53:41;12.00;99.90
64654;DHT22;51065;48.884;12.598;2024-02-16T10:56:08;12.40;99.90
64654;DHT22;51065;48.884;12.598;2024-02-16T10:58:34;12.50;99.90
64654;DHT22;51065;48.884;12.598;2024-02-16T11:01:08;12.40;99.90
64654;DHT22;51065;48.884;12.598;2024-02-16T11:03:38;12.00;99.90
64654;DHT22;51065;48.884;12.598;2024-02-16T11:06:14;12.20;1.00
64654;DHT22;51065;48.884;12.598;2024-02-16T11:08:41;13.50;99.90
64654;DHT22;51065;48.884;12.598;2024-02-16T11:11:07;12.90;1.00
64654;DHT22;51065;48.884;12.598;2024-02-16T11:13:35;12.40;99.90
64654;DHT22;51065;48.884;12.598;2024-02-16T11:16:03;12.60;99.90
64654;DHT22;51065;48.884;12.598;2024-02-16T11:18:36;12.40;99.90
64654;DHT22;51065;48.884;12.598;2024-02-16T11:21:03;12.20;99.90
64654;DHT22;51065;48.884;12.598;2024-02-16T11:23:31;12.90;99.90
64654;DHT22;51065;48.884;12.598;2024-02-16T11:26:04;12.90;1.00
64654;DHT22;51065;48.884;12.598;2024-02-16T11:28:34;12.70;1.00
64654;DHT22;51065;48.884;12.598;2024-02-16T11:31:00;13.30;1.00
64654;DHT22;51065;48.884;12.598;2024-02-16T11:33:26;13.30;1.00
64654;DHT22;51065;48.884;12.598;2024-02-16T11:36:00;13.10;1.00
64654;DHT22;51065;48.884;12.598;2024-02-16T11:38:32;13.20;1.00
64654;DHT22;51065;48.884;12.598;2024-02-16T11:41:01;13.00;1.00
64654;DHT22;51065;48.884;12.598;2024-02-16T11:43:30;13.50;99.90
64654;DHT22;51065;48.884;12.598;2024-02-16T11:45:55;13.60;99.90
64654;DHT22;51065;48.884;12.598;2024-02-16T11:48:23;13.20;99.90
64654;DHT22;51065;48.884;12.598;2024-02-16T11:50:49;13.40;99.90
64654;DHT22;51065;48.884;12.598;2024-02-16T11:53:19;13.60;99.90
64654;DHT22;51065;48.884;12.598;2024-02-16T11:55:49;13.80;1.00
64654;DHT22;51065;48.884;12.598;2024-02-16T11:58:17;14.60;99.90
64654;DHT22;51065;48.884;12.598;2024-02-16T12:00:50;14.80;1.00
64654;DHT22;51065;48.884;12.598;2024-02-16T12:03:26;14.90;1.00
64654;DHT22;51065;48.884;12.598;2024-02-16T12:05:57;14.80;1.00
64654;DHT22;51065;48.884;12.598;2024-02-16T12:08:23;14.70;1.00
64654;DHT22;51065;48.884;12.598;2024-02-16T12:10:50;14.40;46.60
64654;DHT22;51065;48.884;12.598;2024-02-16T12:13:20;14.20;1.00
64654;DHT22;51065;48.884;12.598;2024-02-16T12:15:49;14.40;68.00
64654;DHT22;51065;48.884;12.598;2024-02-16T12:18:22;14.80;1.00
64654;DHT22;51065;48.884;12.598;2024-02-16T12:21:04;14.50;2.20
64654;DHT22;51065;48.884;12.598;2024-02-16T12:23:32;14.70;23.70
64654;DHT22;51065;48.884;12.598;2024-02-16T12:25:58;14.60;1.00
64654;DHT22;51065;48.884;12.598;2024-02-16T12:28:26;13.80;99.90
64654;DHT22;51065;48.884;12.598;2024-02-16T12:30:52;13.80;99.90
64654;DHT22;51065;48.884;12.598;2024-02-16T12:33:18;13.40;99.90
64654;DHT22;51065;48.884;12.598;2024-02-16T12:35:43;13.60;99.90
64654;DHT22;51065;48.884;12.598;2024-02-16T12:38:11;14.00;99.90
64654;DHT22;51065;48.884;12.598;2024-02-16T12:40:39;13.60;99.90
64654;DHT22;51065;48.884;12.598;2024-02-16T12:43:05;13.80;99.90
64654;DHT22;51065;48.884;12.598;2024-02-16T12:45:34;14.50;38.20
64654;DHT22;51065;48.884;12.598;2024-02-16T12:47:59;14.70;99.90
64654;DHT22;51065;48.884;12.598;2024-02-16T12:50:25;14.90;66.40
64654;DHT22;51065;48.884;12.598;2024-02-16T12:52:50;15.30;99.90
64654;DHT22;51065;48.884;12.598;2024-02-16T12:55:16;14.90;99.90
64654;DHT22;51065;48.884;12.598;2024-02-16T12:57:42;15.40;99.90
64654;DHT22;51065;48.884;12.598;2024-02-16T13:00:07;14.90;99.90
64654;DHT22;51065;48.884;12.598;2024-02-16T13:02:34;15.60;99.90
64654;DHT22;51065;48.884;12.598;2024-02-16T13:04:59;15.40;52.60
64654;DHT22;51065;48.884;12.598;2024-02-16T13:07:25;15.10;1.00
64654;DHT22;51065;48.884;12.598;2024-02-16T13:09:51;14.90;99.90
64654;DHT22;51065;48.884;12.598;2024-02-16T13:12:17;14.80;99.90
64654;DHT22;51065;48.884;12.598;2024-02-16T13:14:42;14.90;99.90
64654;DHT22;51065;48.884;12.598;2024-02-16T13:17:08;15.20;99.90
64654;DHT22;51065;48.884;12.598;2024-02-16T13:19:34;14.90;99.90
64654;DHT22;51065;48.884;12.598;2024-02-16T13:21:59;15.70;99.90
64654;DHT22;51065;48.884;12.598;2024-02-16T13:24:25;15.50;24.20
64654;DHT22;51065;48.884;12.598;2024-02-16T13:26:50;14.90;36.20
64654;DHT22;51065;48.884;12.598;2024-02-16T13:29:16;15.00;99.90
64654;DHT22;51065;48.884;12.598;2024-02-16T13:31:41;14.50;99.90
64654;DHT22;51065;48.884;12.598;2024-02-16T13:34:08;14.50;1.00
64654;DHT22;51065;48.884;12.598;2024-02-16T13:36:33;14.50;1.00
64654;DHT22;51065;48.884;12.598;2024-02-16T13:38:59;14.30;1.00
64654;DHT22;51065;48.884;12.598;2024-02-16T13:41:25;14.20;1.00
64654;DHT22;51065;48.884;12.598;2024-02-16T13:43:51;13.90;99.90
64654;DHT22;51065;48.884;12.598;2024-02-16T13:46:17;13.90;99.90
64654;DHT22;51065;48.884;12.598;2024-02-16T13:48:43;14.10;99.90
64654;DHT22;51065;48.884;12.598;2024-02-16T13:51:08;13.80;99.90
64654;DHT22;51065;48.884;12.598;2024-02-16T13:53:35;13.90;99.90
64654;DHT22;51065;48.884;12.598;2024-02-16T13:56:01;14.00;99.90
64654;DHT22;51065;48.884;12.598;2024-02-16T13:58:30;14.00;99.90
64654;DHT22;51065;48.884;12.598;2024-02-16T14:00:56;14.10;99.90
64654;DHT22;51065;48.884;12.598;2024-02-16T14:03:22;14.20;99.90
64654;DHT22;51065;48.884;12.598;2024-02-16T14:05:48;14.20;99.90
64654;DHT22;51065;48.884;12.598;2024-02-16T14:08:13;14.20;99.90
64654;DHT22;51065;48.884;12.598;2024-02-16T14:10:40;14.10;99.90
64654;DHT22;51065;48.884;12.598;2024-02-16T14:13:05;14.00;99.90
64654;DHT22;51065;48.884;12.598;2024-02-16T14:15:31;13.90;99.90
64654;DHT22;51065;48.884;12.598;2024-02-16T14:17:57;13.70;99.90
64654;DHT22;51065;48.884;12.598;2024-02-16T14:20:23;13.70;99.90
64654;DHT22;51065;48.884;12.598;2024-02-16T14:22:49;13.60;1.00
64654;DHT22;51065;48.884;12.598;2024-02-16T14:25:15;13.60;1.00
64654;DHT22;51065;48.884;12.598;2024-02-16T14:27:41;13.70;1.00
64654;DHT22;51065;48.884;12.598;2024-02-16T14:30:13;13.80;1.00
64654;DHT22;51065;48.884;12.598;2024-02-16T14:32:39;13.70;1.00
64654;DHT22;51065;48.884;12.598;2024-02-16T14:35:06;13.50;1.00
64654;DHT22;51065;48.884;12.598;2024-02-16T14:37:32;13.50;1.00
64654;DHT22;51065;48.884;12.598;2024-02-16T14:39:58;13.50;1.00
64654;DHT22;51065;48.884;12.598;2024-02-16T14:42:27;13.50;25.80
64654;DHT22;51065;48.884;12.598;2024-02-16T14:44:54;13.40;22.30
64654;DHT22;51065;48.884;12.598;2024-02-16T14:47:19;13.30;36.30
64654;DHT22;51065;48.884;12.598;2024-02-16T14:49:47;13.30;1.00
64654;DHT22;51065;48.884;12.598;2024-02-16T14:52:12;13.30;22.20
64654;DHT22;51065;48.884;12.598;2024-02-16T14:54:38;13.20;43.90
64654;DHT22;51065;48.884;12.598;2024-02-16T14:57:05;13.30;46.60
64654;DHT22;51065;48.884;12.598;2024-02-16T14:59:31;13.20;1.00
64654;DHT22;51065;48.884;12.598;2024-02-16T15:01:56;13.20;12.00
64654;DHT22;51065;48.884;12.598;2024-02-16T15:04:23;13.20;53.00
64654;DHT22;51065;48.884;12.598;2024-02-16T15:06:48;13.30;99.90
64654;DHT22;51065;48.884;12.598;2024-02-16T15:09:14;13.40;46.70
64654;DHT22;51065;48.884;12.598;2024-02-16T15:11:40;13.50;90.00
64654;DHT22;51065;48.884;12.598;2024-02-16T15:14:05;13.40;98.30
64654;DHT22;51065;48.884;12.598;2024-02-16T15:16:31;13.50;99.90
64654;DHT22;51065;48.884;12.598;2024-02-16T15:18:57;13.40;99.90
64654;DHT22;51065;48.884;12.598;2024-02-16T15:21:23;13.30;99.90
64654;DHT22;51065;48.884;12.598;2024-02-16T15:23:53;13.30;99.90